sensor_id;sensor_type;location;lat;lon;timestamp;P1;durP1;ratioP1;P2;durP2;ratioP2
1887;SDS011;944;51.574;6.980;2023-02-10T00:01:21;64.20;;;32.20;;
1887;SDS011;944;51.574;6.980;2023-02-10T00:03:50;64.77;;;30.70;;
1887;SDS011;944;51.574;6.980;2023-02-10T00:06:20;62.10;;;33.37;;
1887;SDS011;944;51.574;6.980;2023-02-10T00:12:35;64.00;;;33.10;;
1887;SDS011;944;51.574;6.980;2023-02-10T00:15:02;73.00;;;33.80;;
1887;SDS011;944;51.574;6.980;2023-02-10T00:17:32;60.70;;;32.73;;
1887;SDS011;944;51.574;6.980;2023-02-10T00:20:02;55.47;;;31.40;;
1887;SDS011;944;51.574;6.980;2023-02-10T00:22:29;64.00;;;34.77;;
1887;SDS011;944;51.574;6.980;2023-02-10T00:24:56;59.47;;;33.67;;
1887;SDS011;944;51.574;6.980;2023-02-10T00:27:23;60.47;;;33.10;;
1887;SDS011;944;51.574;6.980;2023-02-10T00:29:50;66.03;;;32.67;;
1887;SDS011;944;51.574;6.980;2023-02-10T00:32:17;57.23;;;32.80;;
1887;SDS011;944;51.574;6.980;2023-02-10T00:34:46;63.17;;;31.73;;
1887;SDS011;944;51.574;6.980;2023-02-10T00:37:13;62.53;;;32.17;;
1887;SDS011;944;51.574;6.980;2023-02-10T00:39:40;70.67;;;34.27;;
1887;SDS011;944;51.574;6.980;2023-02-10T00:42:08;63.20;;;32.57;;
1887;SDS011;944;51.574;6.980;2023-02-10T00:44:35;68.77;;;34.43;;
1887;SDS011;944;51.574;6.980;2023-02-10T00:47:02;64.70;;;33.40;;
1887;SDS011;944;51.574;6.980;2023-02-10T00:49:30;73.60;;;34.77;;
1887;SDS011;944;51.574;6.980;2023-02-10T00:51:58;60.23;;;33.43;;
1887;SDS011;944;51.574;6.980;2023-02-10T00:54:26;62.80;;;32.90;;
1887;SDS011;944;51.574;6.980;2023-02-10T00:56:53;58.63;;;31.30;;
1887;SDS011;944;51.574;6.980;2023-02-10T00:59:20;62.67;;;33.17;;
1887;SDS011;944;51.574;6.980;2023-02-10T01:01:47;62.30;;;32.50;;
1887;SDS011;944;51.574;6.980;2023-02-10T01:04:14;63.30;;;33.03;;
1887;SDS011;944;51.574;6.980;2023-02-10T01:06:41;60.00;;;32.57;;
1887;SDS011;944;51.574;6.980;2023-02-10T01:09:10;64.03;;;32.30;;
1887;SDS011;944;51.574;6.980;2023-02-10T01:11:37;66.13;;;33.87;;
1887;SDS011;944;51.574;6.980;2023-02-10T01:14:04;76.03;;;34.97;;
1887;SDS011;944;51.574;6.980;2023-02-10T01:16:31;59.10;;;32.80;;
1887;SDS011;944;51.574;6.980;2023-02-10T01:18:59;67.23;;;34.67;;
1887;SDS011;944;51.574;6.980;2023-02-10T01:21:26;80.27;;;38.00;;
1887;SDS011;944;51.574;6.980;2023-02-10T01:23:54;71.77;;;33.70;;
1887;SDS011;944;51.574;6.980;2023-02-10T01:26:23;59.00;;;31.70;;
1887;SDS011;944;51.574;6.980;2023-02-10T01:28:51;69.77;;;33.73;;
1887;SDS011;944;51.574;6.980;2023-02-10T01:31:19;64.83;;;32.97;;
1887;SDS011;944;51.574;6.980;2023-02-10T01:33:49;68.20;;;33.27;;
1887;SDS011;944;51.574;6.980;2023-02-10T01:36:20;71.83;;;34.07;;
1887;SDS011;944;51.574;6.980;2023-02-10T01:38:50;81.20;;;36.63;;
1887;SDS011;944;51.574;6.980;2023-02-10T01:41:18;67.57;;;34.37;;
1887;SDS011;944;51.574;6.980;2023-02-10T01:43:56;71.17;;;35.33;;
1887;SDS011;944;51.574;6.980;2023-02-10T01:46:26;69.33;;;34.93;;
1887;SDS011;944;51.574;6.980;2023-02-10T01:48:55;73.83;;;35.23;;
1887;SDS011;944;51.574;6.980;2023-02-10T01:51:26;71.87;;;37.33;;
1887;SDS011;944;51.574;6.980;2023-02-10T01:54:00;70.07;;;34.57;;
1887;SDS011;944;51.574;6.980;2023-02-10T01:56:28;76.37;;;36.73;;
1887;SDS011;944;51.574;6.980;2023-02-10T01:58:56;68.40;;;35.43;;
1887;SDS011;944;51.574;6.980;2023-02-10T02:01:23;82.60;;;36.87;;
1887;SDS011;944;51.574;6.980;2023-02-10T02:03:50;74.03;;;37.27;;
1887;SDS011;944;51.574;6.980;2023-02-10T02:06:19;82.63;;;36.83;;
1887;SDS011;944;51.574;6.980;2023-02-10T02:08:47;90.50;;;36.00;;
1887;SDS011;944;51.574;6.980;2023-02-10T02:11:16;76.23;;;36.57;;
1887;SDS011;944;51.574;6.980;2023-02-10T02:13:55;78.70;;;36.93;;
1887;SDS011;944;51.574;6.980;2023-02-10T02:16:39;87.53;;;37.77;;
1887;SDS011;944;51.574;6.980;2023-02-10T02:22:59;86.80;;;37.47;;
1887;SDS011;944;51.574;6.980;2023-02-10T02:26:18;80.33;;;38.57;;
1887;SDS011;944;51.574;6.980;2023-02-10T02:29:05;96.17;;;37.50;;
1887;SDS011;944;51.574;6.980;2023-02-10T02:31:58;82.77;;;40.17;;
1887;SDS011;944;51.574;6.980;2023-02-10T02:34:30;75.70;;;38.23;;
1887;SDS011;944;51.574;6.980;2023-02-10T02:37:07;92.03;;;37.30;;
1887;SDS011;944;51.574;6.980;2023-02-10T02:39:41;73.00;;;36.43;;
1887;SDS011;944;51.574;6.980;2023-02-10T02:42:17;67.40;;;34.57;;
1887;SDS011;944;51.574;6.980;2023-02-10T02:44:48;69.30;;;35.93;;
1887;SDS011;944;51.574;6.980;2023-02-10T02:47:27;71.53;;;34.80;;
1887;SDS011;944;51.574;6.980;2023-02-10T02:50:13;72.57;;;35.90;;
1887;SDS011;944;51.574;6.980;2023-02-10T02:52:56;77.90;;;35.20;;
1887;SDS011;944;51.574;6.980;2023-02-10T02:55:48;68.30;;;35.50;;
1887;SDS011;944;51.574;6.980;2023-02-10T02:58:28;85.27;;;34.50;;
1887;SDS011;944;51.574;6.980;2023-02-10T03:01:02;75.30;;;36.80;;
1887;SDS011;944;51.574;6.980;2023-02-10T03:03:36;80.23;;;37.90;;
1887;SDS011;944;51.574;6.980;2023-02-10T03:06:03;101.60;;;39.63;;
1887;SDS011;944;51.574;6.980;2023-02-10T03:08:32;80.57;;;39.17;;
1887;SDS011;944;51.574;6.980;2023-02-10T03:11:01;85.70;;;40.57;;
1887;SDS011;944;51.574;6.980;2023-02-10T03:13:29;80.80;;;41.47;;
1887;SDS011;944;51.574;6.980;2023-02-10T03:15:57;93.57;;;43.10;;
1887;SDS011;944;51.574;6.980;2023-02-10T03:18:24;88.07;;;41.60;;
1887;SDS011;944;51.574;6.980;2023-02-10T03:20:53;83.50;;;42.67;;
1887;SDS011;944;51.574;6.980;2023-02-10T03:23:20;94.33;;;42.80;;
1887;SDS011;944;51.574;6.980;2023-02-10T03:25:47;92.83;;;42.07;;
1887;SDS011;944;51.574;6.980;2023-02-10T03:28:29;87.70;;;41.70;;
1887;SDS011;944;51.574;6.980;2023-02-10T03:30:56;94.00;;;42.80;;
1887;SDS011;944;51.574;6.980;2023-02-10T03:33:23;85.97;;;41.87;;
1887;SDS011;944;51.574;6.980;2023-02-10T03:35:55;95.60;;;41.30;;
1887;SDS011;944;51.574;6.980;2023-02-10T03:38:23;89.13;;;41.47;;
1887;SDS011;944;51.574;6.980;2023-02-10T03:40:51;85.37;;;41.90;;
1887;SDS011;944;51.574;6.980;2023-02-10T03:43:19;88.07;;;42.33;;
1887;SDS011;944;51.574;6.980;2023-02-10T03:45:47;83.20;;;40.73;;
1887;SDS011;944;51.574;6.980;2023-02-10T03:48:14;104.67;;;46.80;;
1887;SDS011;944;51.574;6.980;2023-02-10T03:50:42;103.80;;;43.10;;
1887;SDS011;944;51.574;6.980;2023-02-10T03:53:10;94.23;;;44.33;;
1887;SDS011;944;51.574;6.980;2023-02-10T03:55:37;90.10;;;43.20;;
1887;SDS011;944;51.574;6.980;2023-02-10T03:58:04;108.43;;;48.60;;
1887;SDS011;944;51.574;6.980;2023-02-10T04:00:32;102.03;;;44.60;;
1887;SDS011;944;51.574;6.980;2023-02-10T04:02:59;111.80;;;47.27;;
1887;SDS011;944;51.574;6.980;2023-02-10T04:05:26;103.70;;;47.80;;
1887;SDS011;944;51.574;6.980;2023-02-10T04:07:53;109.00;;;48.43;;
1887;SDS011;944;51.574;6.980;2023-02-10T04:10:21;100.10;;;45.73;;
1887;SDS011;944;51.574;6.980;2023-02-10T04:12:49;109.53;;;50.70;;
1887;SDS011;944;51.574;6.980;2023-02-10T04:15:16;113.33;;;49.83;;
1887;SDS011;944;51.574;6.980;2023-02-10T04:17:43;126.47;;;48.97;;
1887;SDS011;944;51.574;6.980;2023-02-10T04:20:11;108.90;;;48.20;;
1887;SDS011;944;51.574;6.980;2023-02-10T04:22:38;100.23;;;47.70;;
1887;SDS011;944;51.574;6.980;2023-02-10T04:25:05;106.57;;;46.50;;
1887;SDS011;944;51.574;6.980;2023-02-10T04:27:35;113.30;;;48.13;;
1887;SDS011;944;51.574;6.980;2023-02-10T04:30:02;112.77;;;47.13;;
1887;SDS011;944;51.574;6.980;2023-02-10T04:32:32;112.27;;;48.43;;
1887;SDS011;944;51.574;6.980;2023-02-10T04:35:00;109.97;;;48.73;;
1887;SDS011;944;51.574;6.980;2023-02-10T04:37:27;105.23;;;45.43;;
1887;SDS011;944;51.574;6.980;2023-02-10T04:39:54;113.77;;;47.43;;
1887;SDS011;944;51.574;6.980;2023-02-10T04:42:21;111.27;;;46.67;;
1887;SDS011;944;51.574;6.980;2023-02-10T04:44:56;109.27;;;49.07;;
1887;SDS011;944;51.574;6.980;2023-02-10T04:47:23;104.40;;;48.03;;
1887;SDS011;944;51.574;6.980;2023-02-10T04:49:51;95.20;;;46.13;;
1887;SDS011;944;51.574;6.980;2023-02-10T04:52:20;109.57;;;48.00;;
1887;SDS011;944;51.574;6.980;2023-02-10T04:54:47;113.40;;;47.60;;
1887;SDS011;944;51.574;6.980;2023-02-10T04:57:17;104.87;;;46.77;;
1887;SDS011;944;51.574;6.980;2023-02-10T04:59:44;112.07;;;47.87;;
1887;SDS011;944;51.574;6.980;2023-02-10T05:02:12;115.77;;;46.87;;
1887;SDS011;944;51.574;6.980;2023-02-10T05:04:39;112.70;;;47.73;;
1887;SDS011;944;51.574;6.980;2023-02-10T05:07:06;108.07;;;48.03;;
1887;SDS011;944;51.574;6.980;2023-02-10T05:09:33;112.37;;;49.27;;
1887;SDS011;944;51.574;6.980;2023-02-10T05:12:00;122.23;;;58.80;;
1887;SDS011;944;51.574;6.980;2023-02-10T05:14:27;111.43;;;51.27;;
1887;SDS011;944;51.574;6.980;2023-02-10T05:16:55;99.63;;;46.03;;
1887;SDS011;944;51.574;6.980;2023-02-10T05:19:23;115.13;;;47.30;;
1887;SDS011;944;51.574;6.980;2023-02-10T05:21:50;113.07;;;46.17;;
1887;SDS011;944;51.574;6.980;2023-02-10T05:24:17;110.13;;;45.23;;
1887;SDS011;944;51.574;6.980;2023-02-10T05:26:44;96.07;;;44.77;;
1887;SDS011;944;51.574;6.980;2023-02-10T05:29:12;113.10;;;46.97;;
1887;SDS011;944;51.574;6.980;2023-02-10T05:31:41;111.50;;;49.10;;
1887;SDS011;944;51.574;6.980;2023-02-10T05:34:08;104.10;;;45.70;;
1887;SDS011;944;51.574;6.980;2023-02-10T05:36:36;109.30;;;47.07;;
1887;SDS011;944;51.574;6.980;2023-02-10T05:42:51;97.50;;;44.10;;
1887;SDS011;944;51.574;6.980;2023-02-10T05:45:26;105.63;;;45.97;;
1887;SDS011;944;51.574;6.980;2023-02-10T05:47:53;107.67;;;48.07;;
1887;SDS011;944;51.574;6.980;2023-02-10T05:50:20;113.80;;;49.13;;
1887;SDS011;944;51.574;6.980;2023-02-10T05:52:59;120.47;;;49.27;;
1887;SDS011;944;51.574;6.980;2023-02-10T05:59:10;120.30;;;50.60;;
1887;SDS011;944;51.574;6.980;2023-02-10T06:01:39;120.30;;;50.27;;
1887;SDS011;944;51.574;6.980;2023-02-10T06:07:50;128.63;;;51.10;;
1887;SDS011;944;51.574;6.980;2023-02-10T06:10:21;125.47;;;52.07;;
1887;SDS011;944;51.574;6.980;2023-02-10T06:16:31;112.53;;;47.50;;
1887;SDS011;944;51.574;6.980;2023-02-10T06:19:01;115.90;;;48.30;;
1887;SDS011;944;51.574;6.980;2023-02-10T06:21:29;111.80;;;48.70;;
1887;SDS011;944;51.574;6.980;2023-02-10T06:23:56;113.50;;;48.90;;
1887;SDS011;944;51.574;6.980;2023-02-10T06:26:32;113.93;;;49.20;;
1887;SDS011;944;51.574;6.980;2023-02-10T06:29:01;107.70;;;48.30;;
1887;SDS011;944;51.574;6.980;2023-02-10T06:31:52;113.77;;;48.10;;
1887;SDS011;944;51.574;6.980;2023-02-10T06:34:33;115.83;;;48.90;;
1887;SDS011;944;51.574;6.980;2023-02-10T06:37:03;105.60;;;48.63;;
1887;SDS011;944;51.574;6.980;2023-02-10T06:39:31;111.17;;;49.40;;
1887;SDS011;944;51.574;6.980;2023-02-10T06:42:02;120.70;;;50.37;;
1887;SDS011;944;51.574;6.980;2023-02-10T06:44:29;111.07;;;47.80;;
1887;SDS011;944;51.574;6.980;2023-02-10T06:46:57;122.70;;;51.87;;
1887;SDS011;944;51.574;6.980;2023-02-10T06:49:24;118.30;;;50.37;;
1887;SDS011;944;51.574;6.980;2023-02-10T06:51:53;130.47;;;50.60;;
1887;SDS011;944;51.574;6.980;2023-02-10T06:54:20;119.77;;;49.70;;
1887;SDS011;944;51.574;6.980;2023-02-10T06:56:48;119.77;;;49.37;;
1887;SDS011;944;51.574;6.980;2023-02-10T06:59:16;121.03;;;49.87;;
1887;SDS011;944;51.574;6.980;2023-02-10T07:01:43;118.13;;;51.53;;
1887;SDS011;944;51.574;6.980;2023-02-10T07:04:10;113.20;;;48.33;;
1887;SDS011;944;51.574;6.980;2023-02-10T07:06:38;110.00;;;48.37;;
1887;SDS011;944;51.574;6.980;2023-02-10T07:09:05;110.97;;;48.67;;
1887;SDS011;944;51.574;6.980;2023-02-10T07:15:15;111.57;;;46.93;;
1887;SDS011;944;51.574;6.980;2023-02-10T07:17:45;122.90;;;51.40;;
1887;SDS011;944;51.574;6.980;2023-02-10T07:20:12;108.77;;;49.00;;
1887;SDS011;944;51.574;6.980;2023-02-10T07:22:39;90.93;;;43.47;;
1887;SDS011;944;51.574;6.980;2023-02-10T07:25:06;103.53;;;47.27;;
1887;SDS011;944;51.574;6.980;2023-02-10T07:27:35;114.73;;;48.60;;
1887;SDS011;944;51.574;6.980;2023-02-10T07:30:04;102.10;;;45.57;;
1887;SDS011;944;51.574;6.980;2023-02-10T07:36:15;98.67;;;46.03;;
1887;SDS011;944;51.574;6.980;2023-02-10T07:38:42;103.40;;;46.80;;
1887;SDS011;944;51.574;6.980;2023-02-10T07:48:15;110.57;;;48.47;;
1887;SDS011;944;51.574;6.980;2023-02-10T07:50:46;109.27;;;47.10;;
1887;SDS011;944;51.574;6.980;2023-02-10T07:53:15;97.77;;;46.10;;
1887;SDS011;944;51.574;6.980;2023-02-10T07:55:48;102.47;;;47.40;;
1887;SDS011;944;51.574;6.980;2023-02-10T07:58:15;110.73;;;47.80;;
1887;SDS011;944;51.574;6.980;2023-02-10T08:00:42;125.50;;;47.37;;
1887;SDS011;944;51.574;6.980;2023-02-10T08:03:10;98.07;;;47.90;;
1887;SDS011;944;51.574;6.980;2023-02-10T08:05:39;115.57;;;49.00;;
1887;SDS011;944;51.574;6.980;2023-02-10T08:08:07;107.70;;;48.10;;
1887;SDS011;944;51.574;6.980;2023-02-10T08:10:35;109.13;;;47.70;;
1887;SDS011;944;51.574;6.980;2023-02-10T08:13:03;107.50;;;46.30;;
1887;SDS011;944;51.574;6.980;2023-02-10T08:15:30;103.20;;;46.50;;
1887;SDS011;944;51.574;6.980;2023-02-10T08:17:57;102.77;;;46.17;;
1887;SDS011;944;51.574;6.980;2023-02-10T08:20:25;107.57;;;49.17;;
1887;SDS011;944;51.574;6.980;2023-02-10T08:22:53;103.63;;;46.80;;
1887;SDS011;944;51.574;6.980;2023-02-10T08:28:12;107.10;;;47.00;;
1887;SDS011;944;51.574;6.980;2023-02-10T08:30:39;95.43;;;45.77;;
1887;SDS011;944;51.574;6.980;2023-02-10T08:33:09;93.30;;;44.47;;
1887;SDS011;944;51.574;6.980;2023-02-10T08:35:36;92.43;;;43.97;;
1887;SDS011;944;51.574;6.980;2023-02-10T08:38:04;86.97;;;41.90;;
1887;SDS011;944;51.574;6.980;2023-02-10T08:43:21;95.50;;;42.63;;
1887;SDS011;944;51.574;6.980;2023-02-10T08:45:54;91.37;;;43.10;;
1887;SDS011;944;51.574;6.980;2023-02-10T08:48:38;83.33;;;42.40;;
1887;SDS011;944;51.574;6.980;2023-02-10T08:51:26;84.37;;;40.70;;
1887;SDS011;944;51.574;6.980;2023-02-10T08:54:17;93.77;;;42.80;;
1887;SDS011;944;51.574;6.980;2023-02-10T08:57:41;88.03;;;42.87;;
1887;SDS011;944;51.574;6.980;2023-02-10T09:04:31;99.47;;;44.77;;
1887;SDS011;944;51.574;6.980;2023-02-10T09:07:48;87.97;;;43.37;;
1887;SDS011;944;51.574;6.980;2023-02-10T09:15:22;84.17;;;41.53;;
1887;SDS011;944;51.574;6.980;2023-02-10T09:28:51;91.30;;;42.90;;
1887;SDS011;944;51.574;6.980;2023-02-10T09:31:31;88.53;;;42.63;;
1887;SDS011;944;51.574;6.980;2023-02-10T09:47:48;86.50;;;42.43;;
1887;SDS011;944;51.574;6.980;2023-02-10T09:50:50;85.97;;;38.40;;
1887;SDS011;944;51.574;6.980;2023-02-10T09:54:26;97.90;;;40.27;;
1887;SDS011;944;51.574;6.980;2023-02-10T10:34:01;93.73;;;41.30;;
1887;SDS011;944;51.574;6.980;2023-02-10T10:36:40;106.97;;;43.43;;
1887;SDS011;944;51.574;6.980;2023-02-10T10:39:17;95.90;;;45.57;;
1887;SDS011;944;51.574;6.980;2023-02-10T10:49:18;103.77;;;44.60;;
1887;SDS011;944;51.574;6.980;2023-02-10T10:52:01;109.00;;;46.37;;
1887;SDS011;944;51.574;6.980;2023-02-10T10:55:00;95.63;;;42.90;;
1887;SDS011;944;51.574;6.980;2023-02-10T10:57:31;105.00;;;45.50;;
1887;SDS011;944;51.574;6.980;2023-02-10T11:03:41;99.40;;;43.23;;
1887;SDS011;944;51.574;6.980;2023-02-10T11:32:49;84.83;;;38.13;;
1887;SDS011;944;51.574;6.980;2023-02-10T11:36:09;100.40;;;36.47;;
1887;SDS011;944;51.574;6.980;2023-02-10T11:38:44;74.63;;;34.93;;
1887;SDS011;944;51.574;6.980;2023-02-10T11:46:21;99.37;;;39.17;;
1887;SDS011;944;51.574;6.980;2023-02-10T11:53:18;83.40;;;38.90;;
1887;SDS011;944;51.574;6.980;2023-02-10T11:56:01;96.97;;;38.03;;
1887;SDS011;944;51.574;6.980;2023-02-10T12:00:26;88.97;;;39.37;;
1887;SDS011;944;51.574;6.980;2023-02-10T12:05:08;79.87;;;36.77;;
1887;SDS011;944;51.574;6.980;2023-02-10T12:25:19;66.70;;;30.17;;
1887;SDS011;944;51.574;6.980;2023-02-10T12:27:53;61.77;;;27.10;;
1887;SDS011;944;51.574;6.980;2023-02-10T12:30:54;61.90;;;26.30;;
1887;SDS011;944;51.574;6.980;2023-02-10T12:33:35;59.80;;;26.97;;
1887;SDS011;944;51.574;6.980;2023-02-10T12:36:15;61.37;;;27.27;;
1887;SDS011;944;51.574;6.980;2023-02-10T12:38:56;57.33;;;25.30;;
1887;SDS011;944;51.574;6.980;2023-02-10T12:41:38;55.93;;;24.77;;
1887;SDS011;944;51.574;6.980;2023-02-10T12:44:16;51.70;;;22.50;;
1887;SDS011;944;51.574;6.980;2023-02-10T12:47:04;52.57;;;22.97;;
1887;SDS011;944;51.574;6.980;2023-02-10T12:49:45;54.77;;;22.57;;
1887;SDS011;944;51.574;6.980;2023-02-10T12:52:28;65.93;;;22.33;;
1887;SDS011;944;51.574;6.980;2023-02-10T12:55:04;37.27;;;18.60;;
1887;SDS011;944;51.574;6.980;2023-02-10T13:24:10;34.87;;;11.23;;
1887;SDS011;944;51.574;6.980;2023-02-10T13:31:41;31.67;;;12.00;;
1887;SDS011;944;51.574;6.980;2023-02-10T14:04:04;40.13;;;16.87;;
1887;SDS011;944;51.574;6.980;2023-02-10T14:06:35;43.47;;;18.30;;
1887;SDS011;944;51.574;6.980;2023-02-10T14:09:17;35.50;;;16.47;;
1887;SDS011;944;51.574;6.980;2023-02-10T14:12:02;38.63;;;17.00;;
1887;SDS011;944;51.574;6.980;2023-02-10T14:14:32;42.57;;;17.63;;
1887;SDS011;944;51.574;6.980;2023-02-10T14:17:03;42.40;;;17.77;;
1887;SDS011;944;51.574;6.980;2023-02-10T14:19:51;44.33;;;18.80;;
1887;SDS011;944;51.574;6.980;2023-02-10T14:22:23;41.37;;;17.97;;
1887;SDS011;944;51.574;6.980;2023-02-10T14:24:53;42.67;;;18.70;;
1887;SDS011;944;51.574;6.980;2023-02-10T14:27:47;52.47;;;17.83;;
1887;SDS011;944;51.574;6.980;2023-02-10T14:30:18;44.07;;;18.30;;
1887;SDS011;944;51.574;6.980;2023-02-10T14:32:52;45.47;;;19.80;;
1887;SDS011;944;51.574;6.980;2023-02-10T14:35:20;35.50;;;18.60;;
1887;SDS011;944;51.574;6.980;2023-02-10T14:37:50;40.63;;;19.00;;
1887;SDS011;944;51.574;6.980;2023-02-10T14:40:18;55.47;;;19.50;;
1887;SDS011;944;51.574;6.980;2023-02-10T14:42:57;46.20;;;19.40;;
1887;SDS011;944;51.574;6.980;2023-02-10T14:45:27;46.80;;;20.20;;
1887;SDS011;944;51.574;6.980;2023-02-10T14:51:05;38.40;;;19.93;;
1887;SDS011;944;51.574;6.980;2023-02-10T14:53:36;44.50;;;18.30;;
1887;SDS011;944;51.574;6.980;2023-02-10T14:56:12;56.10;;;19.93;;
1887;SDS011;944;51.574;6.980;2023-02-10T14:58:52;38.83;;;20.60;;
1887;SDS011;944;51.574;6.980;2023-02-10T15:01:50;44.80;;;20.40;;
1887;SDS011;944;51.574;6.980;2023-02-10T15:04:21;53.43;;;22.60;;
1887;SDS011;944;51.574;6.980;2023-02-10T15:09:40;55.40;;;22.63;;
1887;SDS011;944;51.574;6.980;2023-02-10T15:21:31;51.00;;;26.77;;
1887;SDS011;944;51.574;6.980;2023-02-10T15:27:45;56.17;;;29.90;;
1887;SDS011;944;51.574;6.980;2023-02-10T15:30:41;52.60;;;28.20;;
1887;SDS011;944;51.574;6.980;2023-02-10T15:34:12;62.80;;;28.43;;
1887;SDS011;944;51.574;6.980;2023-02-10T17:18:29;51.67;;;24.13;;
